Time;durP1;ratioP1;P1;durP2;ratioP2;P2;SDS_P1;SDS_P2;PMS_P1;PMS_P2;Temp;Humidity;BMP_temperature;BMP_pressure;BME280_temperature;BME280_humidity;BME280_pressure;Samples;Min_cycle;Max_cycle;Signal;HPM_P1;HPM_P2
2022/04/14 00:00:35;;;;;;;17.17;9.75;;;11.90;99.90;;;;;;5050716;28;20041;-54
2022/04/14 00:03:00;;;;;;;17.15;9.98;;;11.80;99.90;;;;;;5048958;28;20040;-51
2022/04/14 00:05:26;;;;;;;14.18;9.93;;;11.80;99.90;;;;;;5036680;28;20478;-51
2022/04/14 00:07:51;;;;;;;17.15;10.35;;;11.80;99.90;;;;;;5032335;28;20048;-53
2022/04/14 00:10:17;;;;;;;17.48;9.98;;;11.80;99.90;;;;;;5046571;28;20394;-52
2022/04/14 00:12:43;;;;;;;15.07;10.23;;;11.70;99.90;;;;;;5043466;28;20554;-51
2022/04/14 00:15:10;;;;;;;17.70;10.73;;;11.70;99.90;;;;;;5052661;28;20039;-50
2022/04/14 00:17:36;;;;;;;17.80;10.68;;;11.70;99.90;;;;;;5043353;28;20042;-55
2022/04/14 00:20:06;;;;;;;19.30;10.85;;;11.70;99.90;;;;;;5046811;28;20047;-51
2022/04/14 00:22:32;;;;;;;16.67;11.13;;;11.70;99.90;;;;;;5051862;28;20087;-52
2022/04/14 00:24:57;;;;;;;17.65;12.18;;;11.70;99.90;;;;;;5040960;28;20037;-54
2022/04/14 00:27:23;;;;;;;17.20;11.35;;;11.70;99.90;;;;;;5051529;28;20044;-51
2022/04/14 00:29:49;;;;;;;17.52;11.73;;;11.60;99.90;;;;;;5045553;28;20107;-53
2022/04/14 00:32:15;;;;;;;20.88;13.10;;;11.60;99.90;;;;;;5045328;28;20065;-50
2022/04/14 00:34:40;;;;;;;19.50;12.63;;;11.60;99.90;;;;;;5050926;28;20079;-52
2022/04/14 00:37:07;;;;;;;22.35;14.25;;;11.60;99.90;;;;;;5279917;22;20060;-50
2022/04/14 00:39:32;;;;;;;22.33;14.35;;;11.60;99.90;;;;;;5066044;28;20045;-49
2022/04/14 00:41:58;;;;;;;20.77;15.90;;;11.60;99.90;;;;;;5072137;28;20090;-51
2022/04/14 00:44:24;;;;;;;25.23;16.60;;;11.50;99.90;;;;;;5070482;28;20072;-50
2022/04/14 00:46:50;;;;;;;23.17;15.52;;;11.50;99.90;;;;;;5070502;28;20033;-50
2022/04/14 00:49:16;;;;;;;26.23;16.23;;;11.50;99.90;;;;;;5048492;28;20044;-47
2022/04/14 00:51:41;;;;;;;26.92;16.38;;;11.50;99.90;;;;;;5036942;28;20036;-50
2022/04/14 00:54:07;;;;;;;24.52;16.23;;;11.50;99.90;;;;;;5035228;28;20086;-49
2022/04/14 00:56:32;;;;;;;22.35;15.57;;;11.50;99.90;;;;;;5061891;28;20044;-53
2022/04/14 00:58:58;;;;;;;24.73;16.58;;;11.50;99.90;;;;;;5051929;28;20405;-49
2022/04/14 01:01:24;;;;;;;20.95;15.35;;;11.40;99.90;;;;;;5063510;28;20040;-51
2022/04/14 01:03:51;;;;;;;23.88;16.45;;;11.30;99.90;;;;;;5060935;28;20116;-48
2022/04/14 01:06:19;;;;;;;26.80;16.67;;;11.30;99.90;;;;;;5051794;28;20396;-50
2022/04/14 01:09:16;;;;;;;24.70;16.45;;;11.20;99.90;;;;;;5034701;28;20048;-47
2022/04/14 01:11:33;;;;;;;24.60;16.45;;;11.20;99.90;;;;;;5070590;28;20055;-48
2022/04/14 01:13:58;;;;;;;23.25;16.50;;;11.20;99.90;;;;;;5071836;28;20047;-46
2022/04/14 01:16:24;;;;;;;26.45;17.00;;;11.20;99.90;;;;;;5044719;28;20040;-50
2022/04/14 01:18:50;;;;;;;24.83;17.15;;;11.30;99.90;;;;;;5058053;28;20086;-51
2022/04/14 01:21:17;;;;;;;27.00;16.88;;;11.20;99.90;;;;;;5070839;28;20040;-54
2022/04/14 01:23:44;;;;;;;25.38;17.48;;;11.20;99.90;;;;;;5071398;28;20051;-52
2022/04/14 01:26:11;;;;;;;25.77;17.42;;;11.20;99.90;;;;;;5071237;28;20411;-52
2022/04/14 01:28:37;;;;;;;25.48;17.58;;;11.20;99.90;;;;;;5070393;28;20408;-53
2022/04/14 01:31:02;;;;;;;26.92;17.85;;;11.20;99.90;;;;;;5052738;28;20028;-51
2022/04/14 01:33:28;;;;;;;24.55;17.13;;;11.20;99.90;;;;;;5055070;28;20033;-53
2022/04/14 01:35:53;;;;;;;30.60;16.98;;;11.10;99.90;;;;;;5056181;28;20483;-54
2022/04/14 01:38:19;;;;;;;29.33;17.67;;;11.10;99.90;;;;;;5070400;28;20072;-52
2022/04/14 01:40:45;;;;;;;24.92;18.80;;;11.10;99.90;;;;;;5071871;28;20029;-50
2022/04/14 01:43:11;;;;;;;26.58;18.02;;;11.20;99.90;;;;;;5071417;28;20030;-49
2022/04/14 01:45:36;;;;;;;31.25;18.95;;;11.10;99.90;;;;;;5069221;28;20051;-50
2022/04/14 01:48:02;;;;;;;26.65;18.25;;;11.10;99.90;;;;;;5051022;28;20045;-54
2022/04/14 01:50:27;;;;;;;32.97;19.63;;;11.10;99.90;;;;;;5070199;28;20408;-53
2022/04/14 01:52:53;;;;;;;29.63;18.13;;;11.10;99.90;;;;;;5071009;28;20519;-53
2022/04/14 01:55:18;;;;;;;29.95;18.98;;;11.10;99.90;;;;;;5070911;28;20496;-54
2022/04/14 01:57:45;;;;;;;27.50;18.48;;;11.00;99.90;;;;;;5070966;28;20115;-51
2022/04/14 02:00:13;;;;;;;26.50;19.05;;;11.00;99.90;;;;;;5059844;28;20045;-49
2022/04/14 02:02:39;;;;;;;26.52;18.33;;;11.00;99.90;;;;;;5062379;28;20036;-49
2022/04/14 02:05:05;;;;;;;24.48;17.73;;;11.00;99.90;;;;;;5071418;28;20432;-49
2022/04/14 02:07:30;;;;;;;31.05;18.30;;;11.00;99.90;;;;;;5070101;28;20032;-51
2022/04/14 02:09:56;;;;;;;27.35;19.02;;;11.00;99.90;;;;;;5046122;28;20043;-52
2022/04/14 02:12:22;;;;;;;29.00;18.45;;;10.90;99.90;;;;;;5037500;28;20029;-51
2022/04/14 02:14:47;;;;;;;25.00;17.67;;;10.90;99.90;;;;;;5063084;28;20040;-52
2022/04/14 02:17:13;;;;;;;17.83;12.15;;;10.90;99.90;;;;;;5070129;28;20063;-51
2022/04/14 02:19:38;;;;;;;14.98;11.35;;;10.80;99.90;;;;;;5059752;28;20610;-52
2022/04/14 02:22:04;;;;;;;13.23;10.00;;;10.80;99.90;;;;;;5067493;28;20056;-52
2022/04/14 02:24:30;;;;;;;13.80;9.70;;;10.70;99.90;;;;;;5071142;28;20044;-52
2022/04/14 02:26:55;;;;;;;10.35;7.43;;;10.60;99.90;;;;;;5069299;28;20111;-52
2022/04/14 02:29:21;;;;;;;11.35;9.07;;;10.60;99.90;;;;;;5062623;28;20119;-50
2022/04/14 02:31:46;;;;;;;15.90;10.85;;;10.50;99.90;;;;;;5054878;28;20500;-52
2022/04/14 02:34:12;;;;;;;16.25;11.63;;;10.50;99.90;;;;;;5068010;28;20036;-52
2022/04/14 02:36:38;;;;;;;14.02;10.65;;;10.50;99.90;;;;;;5074384;28;20121;-55
2022/04/14 02:39:04;;;;;;;14.73;10.73;;;10.50;99.90;;;;;;5056371;28;20411;-52
2022/04/14 02:41:29;;;;;;;17.60;13.27;;;10.40;99.90;;;;;;5055001;28;20041;-53
2022/04/14 02:43:55;;;;;;;19.25;13.23;;;10.40;99.90;;;;;;5067573;28;20090;-50
2022/04/14 02:46:20;;;;;;;17.10;11.63;;;10.40;99.90;;;;;;5066953;28;20041;-53
2022/04/14 02:48:46;;;;;;;18.35;14.23;;;10.30;99.90;;;;;;5073554;28;20039;-55
2022/04/14 02:51:11;;;;;;;20.00;14.75;;;10.20;99.90;;;;;;5074476;28;20044;-52
2022/04/14 02:53:37;;;;;;;22.10;16.77;;;10.20;99.90;;;;;;5074280;28;20044;-52
2022/04/14 02:56:05;;;;;;;23.33;15.95;;;10.20;99.90;;;;;;5073155;28;20036;-51
2022/04/14 02:58:31;;;;;;;29.48;18.73;;;10.20;99.90;;;;;;5066154;28;20041;-50
2022/04/14 03:00:57;;;;;;;25.02;18.50;;;10.20;99.90;;;;;;5061958;28;20029;-50
2022/04/14 03:03:24;;;;;;;31.70;19.38;;;10.20;99.90;;;;;;5074127;28;20538;-52
2022/04/14 03:05:50;;;;;;;33.92;20.10;;;10.20;99.90;;;;;;5074013;28;20076;-54
2022/04/14 03:08:15;;;;;;;31.00;18.75;;;10.30;99.90;;;;;;5073992;28;20563;-51
2022/04/14 03:10:41;;;;;;;26.25;17.90;;;10.30;99.90;;;;;;5053849;28;20075;-52
2022/04/14 03:13:07;;;;;;;15.93;11.98;;;10.30;99.90;;;;;;5065734;28;20047;-52
2022/04/14 03:15:33;;;;;;;19.30;12.45;;;10.20;99.90;;;;;;5055078;28;20033;-51
2022/04/14 03:17:58;;;;;;;16.80;12.63;;;10.20;99.90;;;;;;5019588;28;20045;-52
2022/04/14 03:20:24;;;;;;;13.30;9.88;;;10.10;99.90;;;;;;5059615;28;20042;-52
2022/04/14 03:22:49;;;;;;;17.85;13.38;;;10.10;99.90;;;;;;5074336;28;20048;-53
2022/04/14 03:25:15;;;;;;;24.85;16.35;;;10.10;99.90;;;;;;5066701;28;20037;-54
2022/04/14 03:27:41;;;;;;;25.92;17.50;;;10.10;99.90;;;;;;5061770;28;20044;-51
2022/04/14 03:30:08;;;;;;;25.60;16.95;;;10.10;99.90;;;;;;5067760;28;20396;-52
2022/04/14 03:32:45;;;;;;;29.52;19.02;;;10.10;99.90;;;;;;5056281;28;20125;-52
2022/04/14 03:35:12;;;;;;;27.20;18.55;;;10.10;99.90;;;;;;5048124;28;20119;-52
2022/04/14 03:37:38;;;;;;;31.20;20.52;;;10.10;99.90;;;;;;5070911;28;20454;-54
2022/04/14 03:40:05;;;;;;;29.30;21.05;;;10.10;99.90;;;;;;5074057;28;20040;-52
2022/04/14 03:42:31;;;;;;;32.92;21.65;;;10.10;99.90;;;;;;5071911;28;20036;-51
2022/04/14 03:44:58;;;;;;;32.58;22.00;;;10.10;99.90;;;;;;5043687;28;20052;-52
2022/04/14 03:47:25;;;;;;;33.85;21.73;;;10.10;99.90;;;;;;5035630;28;20044;-52
2022/04/14 03:49:51;;;;;;;34.28;22.58;;;10.10;99.90;;;;;;5071566;28;20049;-51
2022/04/14 03:52:17;;;;;;;38.35;23.38;;;10.20;99.90;;;;;;5072951;28;20507;-52
2022/04/14 03:54:44;;;;;;;36.70;23.10;;;10.10;99.90;;;;;;5021441;28;20037;-53
2022/04/14 03:57:10;;;;;;;31.95;21.88;;;10.10;99.90;;;;;;5072885;28;20127;-49
2022/04/14 03:59:36;;;;;;;35.42;22.58;;;10.10;99.90;;;;;;5037794;28;20052;-52
2022/04/14 04:02:03;;;;;;;26.75;18.98;;;10.10;99.90;;;;;;5066160;28;20048;-54
2022/04/14 04:04:28;;;;;;;26.63;18.45;;;10.10;99.90;;;;;;5050413;28;20404;-52
2022/04/14 04:06:54;;;;;;;22.85;16.83;;;10.00;99.90;;;;;;5049455;28;20038;-54
2022/04/14 04:09:20;;;;;;;25.13;16.92;;;9.90;99.90;;;;;;5066705;28;20045;-52
2022/04/14 04:11:46;;;;;;;32.90;18.70;;;9.90;99.90;;;;;;5024738;28;20024;-50
2022/04/14 04:14:11;;;;;;;24.88;17.35;;;9.70;99.90;;;;;;5061011;28;20489;-50
2022/04/14 04:16:37;;;;;;;33.60;20.63;;;9.80;99.90;;;;;;5070685;28;20033;-53
2022/04/14 04:19:03;;;;;;;29.90;20.17;;;9.80;99.90;;;;;;5066009;28;20033;-52
2022/04/14 04:21:30;;;;;;;31.98;22.48;;;9.80;99.90;;;;;;5069743;28;20131;-50
2022/04/14 04:23:56;;;;;;;29.95;21.70;;;9.80;99.90;;;;;;5073343;28;20110;-52
2022/04/14 04:26:22;;;;;;;33.78;21.60;;;9.70;99.90;;;;;;5071552;28;20086;-53
2022/04/14 04:28:47;;;;;;;32.53;21.05;;;9.80;99.90;;;;;;5063586;28;20064;-52
2022/04/14 04:31:13;;;;;;;33.58;22.55;;;9.70;99.90;;;;;;5047286;28;20127;-55
2022/04/14 04:33:38;;;;;;;35.28;22.77;;;9.70;99.90;;;;;;5070275;28;20032;-49
2022/04/14 04:36:04;;;;;;;33.88;23.23;;;9.70;99.90;;;;;;5066955;28;20408;-57
2022/04/14 04:38:31;;;;;;;30.80;21.75;;;9.70;99.90;;;;;;5064648;28;20036;-50
2022/04/14 04:40:58;;;;;;;28.13;20.70;;;9.70;99.90;;;;;;5044626;28;20033;-52
2022/04/14 04:43:24;;;;;;;37.38;23.13;;;9.70;99.90;;;;;;5057760;28;20049;-49
2022/04/14 04:45:50;;;;;;;36.63;23.60;;;9.70;99.90;;;;;;5061228;28;20064;-52
2022/04/14 04:48:16;;;;;;;35.92;24.63;;;9.70;99.90;;;;;;5055266;28;20033;-52
2022/04/14 04:50:42;;;;;;;35.95;22.73;;;9.60;99.90;;;;;;5023244;28;20037;-50
2022/04/14 04:53:08;;;;;;;31.98;21.80;;;9.60;99.90;;;;;;5047283;28;20114;-51
2022/04/14 04:55:33;;;;;;;35.03;22.75;;;9.60;99.90;;;;;;5059375;28;20036;-49
2022/04/14 04:57:59;;;;;;;34.60;21.52;;;9.60;99.90;;;;;;5052772;28;20055;-48
2022/04/14 05:00:24;;;;;;;30.30;21.30;;;9.60;99.90;;;;;;5053281;28;20037;-52
2022/04/14 05:02:50;;;;;;;29.98;21.45;;;9.60;99.90;;;;;;5048468;28;20040;-55
2022/04/14 05:05:15;;;;;;;29.30;21.13;;;9.60;99.90;;;;;;5058269;28;20098;-51
2022/04/14 05:07:41;;;;;;;36.00;22.67;;;9.60;99.90;;;;;;5061982;28;20033;-52
2022/04/14 05:10:07;;;;;;;35.15;22.73;;;9.50;99.90;;;;;;5026893;28;20040;-51
2022/04/14 05:12:33;;;;;;;29.38;22.20;;;9.50;99.90;;;;;;5065278;28;20043;-53
2022/04/14 05:14:58;;;;;;;35.08;22.50;;;9.50;99.90;;;;;;5069402;28;20496;-53
2022/04/14 05:17:24;;;;;;;35.88;23.02;;;9.50;99.90;;;;;;5044977;28;20040;-51
2022/04/14 05:19:50;;;;;;;32.08;21.92;;;9.50;99.90;;;;;;5060067;28;20036;-53
2022/04/14 05:22:15;;;;;;;32.72;21.98;;;9.50;99.90;;;;;;5051894;28;20037;-52
2022/04/14 05:24:41;;;;;;;31.83;20.95;;;9.50;99.90;;;;;;5062730;28;20041;-53
2022/04/14 05:27:06;;;;;;;20.55;14.20;;;9.50;99.90;;;;;;5061283;28;20036;-52
2022/04/14 05:29:32;;;;;;;16.50;12.27;;;9.50;99.90;;;;;;5063134;28;20420;-51
2022/04/14 05:31:57;;;;;;;17.10;12.55;;;9.40;99.90;;;;;;5059701;28;20036;-53
2022/04/14 05:34:23;;;;;;;21.63;15.75;;;9.40;99.90;;;;;;5044194;28;20048;-53
2022/04/14 05:36:49;;;;;;;23.17;16.25;;;9.30;99.90;;;;;;5065703;28;20096;-51
2022/04/14 05:39:15;;;;;;;42.65;19.08;;;9.40;99.90;;;;;;5059070;28;20037;-53
2022/04/14 05:41:42;;;;;;;29.15;20.05;;;9.40;99.90;;;;;;5051600;28;20137;-53
2022/04/14 05:44:08;;;;;;;36.05;23.52;;;9.40;99.90;;;;;;5051390;28;20036;-51
2022/04/14 05:46:33;;;;;;;38.50;25.40;;;9.50;99.90;;;;;;5051089;28;20041;-53
2022/04/14 05:48:59;;;;;;;40.65;24.67;;;9.60;99.90;;;;;;5051494;28;20432;-53
2022/04/14 05:51:24;;;;;;;35.88;23.48;;;9.80;99.90;;;;;;5064428;28;20036;-49
2022/04/14 05:53:51;;;;;;;41.90;25.40;;;9.90;99.90;;;;;;5071491;28;20037;-53
2022/04/14 05:56:17;;;;;;;33.97;24.63;;;10.10;99.90;;;;;;5071382;28;20066;-52
2022/04/14 05:58:43;;;;;;;35.92;24.80;;;10.30;99.90;;;;;;5071507;28;20447;-53
2022/04/14 06:01:09;;;;;;;40.75;25.73;;;10.40;99.90;;;;;;5073457;28;20078;-53
2022/04/14 06:03:34;;;;;;;35.10;24.52;;;10.40;99.90;;;;;;5075577;28;20041;-53
2022/04/14 06:06:00;;;;;;;36.20;25.35;;;10.60;99.90;;;;;;5073903;28;20029;-55
2022/04/14 06:08:25;;;;;;;36.83;24.73;;;10.70;99.90;;;;;;5056695;28;20123;-52
2022/04/14 06:10:51;;;;;;;37.80;24.75;;;10.70;99.90;;;;;;5057429;28;20043;-51
2022/04/14 06:13:16;;;;;;;34.00;24.02;;;11.00;99.90;;;;;;5074797;28;20036;-53
2022/04/14 06:15:42;;;;;;;34.50;24.98;;;11.30;99.90;;;;;;5048698;28;20037;-53
2022/04/14 06:18:08;;;;;;;35.78;25.00;;;11.60;99.90;;;;;;5075035;28;20032;-54
2022/04/14 06:20:34;;;;;;;39.08;25.83;;;11.70;99.90;;;;;;5066939;28;20044;-50
2022/04/14 06:22:59;;;;;;;38.80;27.83;;;11.70;99.90;;;;;;5069508;28;20405;-51
2022/04/14 06:25:55;;;;;;;40.38;27.38;;;11.60;99.90;;;;;;5063977;28;20507;-50
2022/04/14 06:28:21;;;;;;;43.03;28.48;;;11.70;99.90;;;;;;5054399;28;20036;-54
2022/04/14 06:30:47;;;;;;;37.25;28.35;;;11.80;99.90;;;;;;5055218;28;20040;-54
2022/04/14 06:33:13;;;;;;;42.20;30.10;;;12.10;99.90;;;;;;5055205;28;20041;-54
2022/04/14 06:35:39;;;;;;;42.15;28.58;;;12.20;99.90;;;;;;5054878;28;20037;-53
2022/04/14 06:38:04;;;;;;;37.33;27.45;;;12.20;99.90;;;;;;5074743;28;20511;-53
2022/04/14 06:40:30;;;;;;;38.83;27.48;;;12.20;99.90;;;;;;5036814;28;20296;-52
2022/04/14 06:42:56;;;;;;;38.30;28.55;;;12.10;99.90;;;;;;5074674;28;20106;-51
2022/04/14 06:45:23;;;;;;;41.38;28.30;;;12.10;99.90;;;;;;5056909;28;20047;-55
2022/04/14 06:47:49;;;;;;;43.40;29.08;;;12.00;99.90;;;;;;5039898;28;20443;-51
2022/04/14 06:50:14;;;;;;;43.13;30.02;;;12.00;99.90;;;;;;5073834;28;20500;-50
2022/04/14 06:52:40;;;;;;;44.60;29.88;;;12.00;99.90;;;;;;5074551;28;20090;-53
2022/04/14 06:55:07;;;;;;;44.90;29.52;;;12.00;99.90;;;;;;5074192;28;20404;-53
2022/04/14 06:57:33;;;;;;;45.22;30.65;;;12.10;99.90;;;;;;5056467;28;20123;-52
2022/04/14 06:59:58;;;;;;;44.55;30.58;;;12.10;99.90;;;;;;5073554;28;20647;-50
2022/04/14 07:02:24;;;;;;;46.72;31.35;;;12.20;99.90;;;;;;5074541;28;20055;-52
2022/04/14 07:04:49;;;;;;;46.13;30.60;;;12.20;99.90;;;;;;5073226;28;20488;-56
2022/04/14 07:07:15;;;;;;;43.10;30.98;;;12.20;99.90;;;;;;5055914;28;20040;-51
2022/04/14 07:09:40;;;;;;;45.53;31.30;;;12.20;99.90;;;;;;5072452;28;20045;-52
2022/04/14 07:12:07;;;;;;;44.92;30.83;;;12.30;99.90;;;;;;5067238;28;20032;-52
2022/04/14 07:14:33;;;;;;;44.70;30.83;;;12.30;99.90;;;;;;5074168;28;20036;-51
2022/04/14 07:16:59;;;;;;;46.88;33.05;;;12.30;99.90;;;;;;5055875;28;20051;-54
2022/04/14 07:19:26;;;;;;;48.45;34.08;;;12.40;99.90;;;;;;5072762;28;20036;-52
2022/04/14 07:21:52;;;;;;;44.42;31.58;;;12.40;99.90;;;;;;5073049;28;20428;-53
2022/04/14 07:24:18;;;;;;;48.33;31.83;;;12.50;99.90;;;;;;5067051;28;20037;-52
2022/04/14 07:26:44;;;;;;;48.38;30.88;;;12.50;99.90;;;;;;5071975;28;20032;-52
2022/04/14 07:29:10;;;;;;;46.13;31.00;;;12.60;99.90;;;;;;5056138;28;20036;-51
2022/04/14 07:31:36;;;;;;;45.25;29.67;;;12.70;99.90;;;;;;5073341;28;20605;-53
2022/04/14 07:34:03;;;;;;;46.03;29.42;;;12.80;99.90;;;;;;5039481;28;20044;-52
2022/04/14 07:36:29;;;;;;;41.10;28.38;;;12.90;99.90;;;;;;5073476;28;20051;-54
2022/04/14 07:38:55;;;;;;;41.20;27.23;;;13.00;99.90;;;;;;5055947;28;20064;-52
2022/04/14 07:41:21;;;;;;;42.53;27.67;;;13.00;99.90;;;;;;5073862;28;20044;-52
2022/04/14 07:43:47;;;;;;;42.88;27.75;;;13.10;99.90;;;;;;5055740;28;20119;-52
2022/04/14 07:46:13;;;;;;;42.40;28.25;;;13.20;99.90;;;;;;5038610;28;20449;-53
2022/04/14 07:48:38;;;;;;;39.03;25.40;;;13.30;99.90;;;;;;5071055;28;20040;-51
2022/04/14 07:51:04;;;;;;;35.95;24.63;;;13.40;99.90;;;;;;5073502;28;20047;-49
2022/04/14 07:53:33;;;;;;;35.67;23.58;;;13.50;99.90;;;;;;5073252;28;20489;-51
2022/04/14 07:55:58;;;;;;;38.92;23.98;;;13.60;99.90;;;;;;5055453;28;20036;-53
2022/04/14 07:58:24;;;;;;;36.25;24.42;;;13.70;99.90;;;;;;5073124;28;20404;-52
2022/04/14 08:00:52;;;;;;;34.83;24.17;;;13.80;99.90;;;;;;5072168;28;20513;-53
2022/04/14 08:03:19;;;;;;;32.53;20.92;;;13.90;99.90;;;;;;5073322;28;20048;-50
2022/04/14 08:05:46;;;;;;;36.40;23.45;;;14.00;99.90;;;;;;5072240;28;20044;-53
2022/04/14 08:08:15;;;;;;;34.72;22.52;;;14.10;99.90;;;;;;5072954;28;20043;-52
2022/04/14 08:10:42;;;;;;;33.50;21.48;;;14.20;99.90;;;;;;5073098;28;20523;-52
2022/04/14 08:13:08;;;;;;;35.05;22.73;;;14.20;99.90;;;;;;5072982;28;20051;-53
2022/04/14 08:15:34;;;;;;;36.50;23.23;;;14.40;99.90;;;;;;5072424;28;20079;-54
2022/04/14 08:18:00;;;;;;;27.05;18.67;;;14.50;99.90;;;;;;5072183;28;20068;-53
2022/04/14 08:20:27;;;;;;;23.35;15.95;;;14.60;99.90;;;;;;5072786;28;20400;-54
2022/04/14 08:22:58;;;;;;;27.67;16.42;;;14.70;99.90;;;;;;5072305;28;20044;-54
2022/04/14 08:25:29;;;;;;;23.15;15.45;;;14.80;99.90;;;;;;5038528;28;20083;-54
2022/04/14 08:27:56;;;;;;;27.35;18.50;;;14.80;99.90;;;;;;5072331;28;20047;-52
2022/04/14 08:30:23;;;;;;;25.85;17.27;;;14.90;99.90;;;;;;5071852;28;20071;-52
2022/04/14 08:32:50;;;;;;;23.63;17.13;;;15.00;99.90;;;;;;5054882;28;20048;-49
2022/04/14 08:35:17;;;;;;;21.60;14.82;;;15.10;99.90;;;;;;5054615;28;20036;-52
2022/04/14 08:37:44;;;;;;;22.35;14.90;;;15.10;99.90;;;;;;5072323;28;20115;-52
2022/04/14 08:40:11;;;;;;;22.98;16.05;;;15.20;99.90;;;;;;5072624;28;20468;-51
2022/04/14 08:42:43;;;;;;;25.25;16.60;;;15.30;99.90;;;;;;5072824;28;20404;-50
2022/04/14 08:45:13;;;;;;;23.77;15.65;;;15.40;99.90;;;;;;5070682;28;20105;-49
2022/04/14 08:47:40;;;;;;;23.15;16.27;;;15.50;99.90;;;;;;5071814;28;20032;-54
2022/04/14 08:50:11;;;;;;;23.70;16.00;;;15.50;99.90;;;;;;5037665;28;20044;-53
2022/04/14 08:52:38;;;;;;;24.05;15.45;;;15.60;99.90;;;;;;5072503;28;20401;-50
2022/04/14 08:55:10;;;;;;;22.73;15.52;;;15.70;99.90;;;;;;5072423;28;20032;-51
2022/04/14 08:57:36;;;;;;;22.15;16.08;;;15.70;99.90;;;;;;5071797;28;20040;-52
2022/04/14 09:00:05;;;;;;;23.90;15.93;;;15.80;99.90;;;;;;5053712;28;20040;-55
2022/04/14 09:02:32;;;;;;;20.15;14.80;;;15.90;99.90;;;;;;5063614;28;20094;-52
2022/04/14 09:04:58;;;;;;;23.20;15.57;;;16.00;99.90;;;;;;5037560;28;20051;-52
2022/04/14 09:07:25;;;;;;;21.38;15.27;;;16.00;99.90;;;;;;5071697;28;20036;-51
2022/04/14 09:09:50;;;;;;;20.15;15.18;;;16.10;99.90;;;;;;5037022;28;20549;-52
2022/04/14 09:12:17;;;;;;;22.30;14.75;;;16.20;99.90;;;;;;5071899;28;20079;-52
2022/04/14 09:14:43;;;;;;;22.90;15.93;;;16.20;99.90;;;;;;5071732;28;20032;-51
2022/04/14 09:17:09;;;;;;;19.55;14.80;;;16.30;99.90;;;;;;5071770;28;20548;-49
2022/04/14 09:19:36;;;;;;;20.63;14.02;;;16.40;99.90;;;;;;5071888;28;20051;-52
2022/04/14 09:22:10;;;;;;;22.70;15.75;;;16.50;99.90;;;;;;5070784;28;20068;-53
2022/04/14 09:24:43;;;;;;;20.05;14.65;;;16.50;99.90;;;;;;5051733;28;20094;-55
2022/04/14 09:27:21;;;;;;;19.52;14.95;;;16.60;99.90;;;;;;5051229;28;20044;-51
2022/04/14 09:29:48;;;;;;;23.52;14.25;;;16.50;99.80;;;;;;5017726;28;20463;-49
2022/04/14 09:32:27;;;;;;;17.27;13.68;;;16.50;99.60;;;;;;5034085;28;20043;-50
2022/04/14 09:34:53;;;;;;;16.75;13.23;;;16.60;99.20;;;;;;5052024;28;20037;-50
2022/04/14 09:37:20;;;;;;;19.42;14.98;;;16.60;98.90;;;;;;5055924;28;20047;-50
2022/04/14 09:39:56;;;;;;;17.85;14.32;;;16.70;98.30;;;;;;5071508;28;20051;-51
2022/04/14 09:42:23;;;;;;;19.13;14.57;;;16.70;97.80;;;;;;5071770;28;20040;-51
2022/04/14 09:44:51;;;;;;;18.48;15.15;;;16.60;97.50;;;;;;5071648;28;20044;-52
2022/04/14 09:47:23;;;;;;;20.08;15.27;;;16.50;97.40;;;;;;5071215;28;20401;-54
2022/04/14 09:49:48;;;;;;;;;;;16.40;97.10;;;;;;5071987;28;20043;-54
2022/04/14 09:52:14;;;;;;;17.55;13.70;;;16.50;97.70;;;;;;5070531;28;19921;-51
2022/04/14 09:54:40;;;;;;;17.63;14.38;;;16.60;97.30;;;;;;5071521;28;20119;-52
2022/04/14 09:57:10;;;;;;;19.27;13.80;;;16.70;97.20;;;;;;5071099;28;20044;-51
2022/04/14 09:59:37;;;;;;;17.27;13.77;;;16.70;96.80;;;;;;5071234;28;20500;-50
2022/04/14 10:02:14;;;;;;;16.63;13.27;;;16.80;97.00;;;;;;5071768;28;20076;-54
2022/04/14 10:04:44;;;;;;;16.95;13.48;;;16.90;96.60;;;;;;5069341;28;20112;-52
2022/04/14 10:07:13;;;;;;;16.73;13.43;;;17.00;96.50;;;;;;5071176;28;20115;-51
2022/04/14 10:09:42;;;;;;;18.08;13.48;;;17.10;96.80;;;;;;5053440;28;20449;-54
2022/04/14 10:12:20;;;;;;;17.35;13.23;;;17.20;96.90;;;;;;5071336;28;20043;-52
2022/04/14 10:15:02;;;;;;;21.48;14.75;;;17.20;96.40;;;;;;5071293;28;20040;-52
2022/04/14 10:17:30;;;;;;;16.23;13.20;;;17.20;96.40;;;;;;5071329;28;20080;-53
2022/04/14 10:19:56;;;;;;;19.95;14.02;;;17.30;96.10;;;;;;5068962;28;20040;-52
2022/04/14 10:22:23;;;;;;;17.80;14.48;;;17.30;95.80;;;;;;5071111;28;20044;-53
2022/04/14 10:24:52;;;;;;;18.02;14.75;;;17.30;96.30;;;;;;5071205;28;20120;-51
2022/04/14 10:27:21;;;;;;;20.35;16.02;;;17.30;96.30;;;;;;5070814;28;20116;-50
2022/04/14 10:29:48;;;;;;;19.10;14.45;;;17.20;96.70;;;;;;5070985;28;20043;-52
2022/04/14 10:32:13;;;;;;;15.50;11.43;;;17.20;96.60;;;;;;5071218;28;20052;-51
2022/04/14 10:34:40;;;;;;;16.42;12.15;;;17.30;96.10;;;;;;5070023;28;20140;-52
2022/04/14 10:37:13;;;;;;;16.80;11.80;;;17.20;95.50;;;;;;5070774;28;20044;-53
2022/04/14 10:39:49;;;;;;;17.20;12.32;;;17.20;95.50;;;;;;5053091;28;20047;-52
2022/04/14 10:42:26;;;;;;;15.50;11.38;;;17.20;95.70;;;;;;5036382;28;20123;-51
2022/04/14 10:44:53;;;;;;;14.43;11.32;;;17.20;95.10;;;;;;5071193;28;20049;-52
2022/04/14 10:47:43;;;;;;;15.45;10.77;;;17.20;94.50;;;;;;5072017;28;20047;-52
2022/04/14 10:50:20;;;;;;;13.30;10.02;;;17.20;94.20;;;;;;5075109;28;20037;-53
2022/04/14 10:53:20;;;;;;;16.38;11.57;;;17.30;95.00;;;;;;5075304;28;20051;-51
2022/04/14 10:55:48;;;;;;;16.48;11.65;;;17.30;94.60;;;;;;5057252;28;20047;-51
2022/04/14 10:58:26;;;;;;;15.88;11.85;;;17.40;94.70;;;;;;5074441;28;20048;-52
2022/04/14 11:00:52;;;;;;;15.60;10.98;;;17.50;95.10;;;;;;5074747;28;20040;-53
2022/04/14 11:03:18;;;;;;;13.50;9.82;;;17.40;94.70;;;;;;5074282;28;20033;-51
2022/04/14 11:05:49;;;;;;;15.35;9.80;;;17.40;94.50;;;;;;5074656;28;20060;-52
2022/04/14 11:08:21;;;;;;;16.52;8.35;;;17.40;93.70;;;;;;5074449;28;20072;-51
2022/04/14 11:10:52;;;;;;;;;;;17.30;92.70;;;;;;5040724;28;20389;-52
2022/04/14 11:13:18;;;;;;;9.50;6.67;;;17.20;93.20;;;;;;5074521;28;20011;-53
2022/04/14 11:15:43;;;;;;;10.02;7.75;;;17.10;92.90;;;;;;5072716;28;20123;-54
2022/04/14 11:18:09;;;;;;;10.63;7.70;;;17.00;92.60;;;;;;5055902;28;20044;-53
2022/04/14 11:20:35;;;;;;;13.27;8.02;;;17.00;93.40;;;;;;5074437;28;20036;-52
2022/04/14 11:23:27;;;;;;;15.18;8.30;;;17.00;93.90;;;;;;5056115;28;20461;-51
2022/04/14 11:26:02;;;;;;;13.30;6.30;;;17.20;93.80;;;;;;5073880;28;20115;-50
2022/04/14 11:28:35;;;;;;;8.00;5.72;;;17.30;93.20;;;;;;5055752;28;20066;-53
2022/04/14 11:31:05;;;;;;;8.88;5.60;;;17.50;92.30;;;;;;5072967;28;20040;-51
2022/04/14 11:33:30;;;;;;;9.88;5.68;;;17.50;91.90;;;;;;5074007;28;20382;-52
2022/04/14 11:36:09;;;;;;;9.77;5.82;;;17.60;91.70;;;;;;5074125;28;20111;-53
2022/04/14 11:39:00;;;;;;;9.38;5.55;;;17.70;91.30;;;;;;5055395;28;20049;-52
2022/04/14 11:41:34;;;;;;;10.27;6.38;;;17.70;91.30;;;;;;5039320;28;20504;-53
2022/04/14 11:44:01;;;;;;;7.07;4.13;;;17.90;91.70;;;;;;5072628;28;20580;-54
2022/04/14 11:46:28;;;;;;;8.95;5.10;;;17.90;90.30;;;;;;5073377;28;20059;-50
2022/04/14 11:48:54;;;;;;;7.07;4.45;;;17.80;87.80;;;;;;5038955;28;20048;-55
2022/04/14 11:51:21;;;;;;;9.02;5.65;;;17.80;89.80;;;;;;5073884;28;20086;-55
2022/04/14 11:53:46;;;;;;;9.60;6.90;;;17.80;89.80;;;;;;5055641;28;20044;-52
2022/04/14 11:56:17;;;;;;;11.82;6.65;;;18.00;90.70;;;;;;5083502;28;20033;-53
2022/04/14 11:58:43;;;;;;;13.48;8.73;;;18.00;90.40;;;;;;5070973;28;20036;-55
2022/04/14 12:01:09;;;;;;;16.27;9.05;;;18.10;90.60;;;;;;5073361;28;20161;-55
2022/04/14 12:03:34;;;;;;;10.85;7.72;;;18.10;90.60;;;;;;5055096;28;20044;-55
2022/04/14 12:06:05;;;;;;;12.30;7.13;;;18.20;90.80;;;;;;5073111;28;20443;-54
2022/04/14 12:08:31;;;;;;;13.20;7.32;;;18.10;88.70;;;;;;5054915;28;20075;-55
2022/04/14 12:11:09;;;;;;;10.07;6.75;;;18.00;89.80;;;;;;5071383;28;20071;-54
2022/04/14 12:13:34;;;;;;;10.10;7.07;;;17.80;88.20;;;;;;5072992;28;20139;-52
2022/04/14 12:16:08;;;;;;;10.02;6.38;;;17.60;88.30;;;;;;5072824;28;20579;-55
2022/04/14 12:18:36;;;;;;;9.93;5.32;;;17.50;88.90;;;;;;5073154;28;20519;-55
2022/04/14 12:21:02;;;;;;;11.40;5.45;;;17.30;87.70;;;;;;5073005;28;20123;-55
2022/04/14 12:23:27;;;;;;;9.52;6.00;;;17.20;89.20;;;;;;5072845;28;20448;-55
2022/04/14 12:25:54;;;;;;;11.80;5.78;;;17.20;89.60;;;;;;5070954;28;20044;-52
2022/04/14 12:28:20;;;;;;;9.38;4.93;;;17.10;89.70;;;;;;5071754;28;20045;-52
2022/04/14 12:30:46;;;;;;;8.70;4.88;;;17.00;89.10;;;;;;5072546;28;20036;-55